MMTG/TGZ METAR and TAF weather

Enter ICAO airport designator
Station Type Date Time Source
MMTG METAR 2020/10/29 16:47 UTC NOAA

MMTG 291647Z 11003KT 5SM SCT025 SCT080 28/21 A2999 RMK 8/520 HZY


Station Type Date Time Source
MMTG Decoded METAR 2020/10/29 16:47 UTC NOAA

Tuxtla Gutierrez, Chis., Mexico (MMTG) 16-45N 093-07W
Oct 29, 2020 - 12:47 PM EDT / 2020.10.29 1647 UTC
Wind: from the ESE (110 degrees) at 3 MPH (3 KT):0
Visibility: 5 mile(s):0
Sky conditions: partly cloudy
Temperature: 82 F (28 C)
Dew Point: 69 F (21 C)
Relative Humidity: 65%
Pressure (altimeter): 29.99 in. Hg (1015 hPa)
ob: MMTG 291647Z 11003KT 5SM SCT025 SCT080 28/21 A2999 RMK 8/520 HZY
cycle: 17

Station Type Date Time Source
MMTG TAF 2020/10/29 18:28 UTC NOAA

TAF MMTG 291728Z 2918/3018 32010KT P6SM SCT025 SCT080
TEMPO 2921/3001 5SM RA VC TS BKN020CB BKN070
FM300100 30005KT 6SM HZ BKN020 BKN080
TEMPO 3010/3014 3SM RA BR OVC015

Example: see airport list